Time;durP1;ratioP1;P1;durP2;ratioP2;P2;SDS_P1;SDS_P2;PMS_P1;PMS_P2;Temp;Humidity;BMP_temperature;BMP_pressure;BME280_temperature;BME280_humidity;BME280_pressure;Samples;Min_cycle;Max_cycle;Signal;HPM_P1;HPM_P2
2021/06/09 00:01:17;;;;;;;;;6.75;5.50;;;;;19.11;53.86;101779.41;4888637;29;45534;-79
2021/06/09 00:03:45;;;;;;;;;5.00;4.50;;;;;18.79;53.42;101729.66;4849204;29;46988;-79
2021/06/09 00:06:10;;;;;;;;;5.00;5.00;;;;;18.73;53.63;101721.16;4898008;29;45490;-79
2021/06/09 00:08:36;;;;;;;;;6.25;5.25;;;;;18.82;53.63;101739.22;4905011;29;45625;-79
2021/06/09 00:11:01;;;;;;;;;5.00;4.50;;;;;18.71;53.56;101736.97;4887780;29;45508;-80
2021/06/09 00:13:35;;;;;;;;;6.50;5.75;;;;;18.70;53.54;101727.38;4871711;29;46559;-80
2021/06/09 00:16:05;;;;;;;;;6.00;6.00;;;;;18.73;53.58;101750.91;4883725;29;45590;-79
2021/06/09 00:18:33;;;;;;;;;4.00;4.00;;;;;18.70;53.54;101743.13;4887845;29;45534;-79
2021/06/09 00:20:59;;;;;;;;;5.00;5.00;;;;;18.56;53.45;101710.31;4873219;29;45456;-79
2021/06/09 00:23:30;;;;;;;;;5.75;4.25;;;;;18.62;53.31;101724.13;4904455;29;45505;-79
2021/06/09 00:25:57;;;;;;;;;6.00;5.00;;;;;18.82;53.74;101765.50;4904512;29;45561;-79
2021/06/09 00:28:26;;;;;;;;;4.00;4.00;;;;;18.64;53.87;101727.56;4887489;29;45532;-79
2021/06/09 00:30:51;;;;;;;;;6.50;6.50;;;;;18.86;54.29;101768.88;4887536;29;45631;-79
2021/06/09 00:33:17;;;;;;;;;7.25;7.25;;;;;18.73;54.52;101753.53;4871807;29;45554;-79
2021/06/09 00:35:42;;;;;;;;;4.75;4.25;;;;;18.55;54.48;101729.63;4887632;29;46021;-79
2021/06/09 00:38:08;;;;;;;;;5.00;4.75;;;;;18.55;53.69;101727.00;4901059;29;45508;-79
2021/06/09 00:40:34;;;;;;;;;8.00;7.50;;;;;18.29;53.81;101689.31;4886671;29;45592;-79
2021/06/09 00:43:14;;;;;;;;;5.00;5.00;;;;;18.86;53.89;101785.50;4887440;29;45826;-79
2021/06/09 00:45:59;;;;;;;;;11.50;6.75;;;;;18.46;54.34;101725.53;4871323;29;45509;-79
2021/06/09 00:48:29;;;;;;;;;4.25;4.25;;;;;18.27;54.41;101700.78;4886604;29;45485;-79
2021/06/09 00:50:55;;;;;;;;;3.75;3.75;;;;;18.46;54.41;101735.16;4888078;29;45506;-79
2021/06/09 00:53:27;;;;;;;;;5.00;5.00;;;;;18.32;54.91;101701.50;4886913;29;45412;-79
2021/06/09 00:55:54;;;;;;;;;4.75;4.75;;;;;18.50;54.88;101741.19;4903932;29;45746;-79
2021/06/09 00:58:22;;;;;;;;;6.00;5.50;;;;;18.31;54.62;101708.50;4887171;29;45485;-79
2021/06/09 01:00:50;;;;;;;;;4.25;4.25;;;;;18.31;54.41;101720.75;4886274;29;45892;-80
2021/06/09 01:03:16;;;;;;;;;6.25;6.25;;;;;18.33;54.54;101725.06;4868549;29;46780;-79
2021/06/09 01:05:52;;;;;;;;;5.75;5.75;;;;;18.44;54.64;101744.84;4887093;29;45554;-79
2021/06/09 01:08:18;;;;;;;;;4.00;4.00;;;;;18.88;54.81;101820.44;4886942;29;45872;-79
2021/06/09 01:10:45;;;;;;;;;4.75;4.75;;;;;18.25;54.92;101720.97;4871215;29;45640;-79
2021/06/09 01:13:11;;;;;;;;;7.00;6.50;;;;;18.72;55.57;101793.00;4871617;29;45570;-79
2021/06/09 01:15:36;;;;;;;;;7.25;6.00;;;;;18.02;55.25;101681.41;4854713;29;45545;-79
2021/06/09 01:18:04;;;;;;;;;6.00;5.00;;;;;18.29;54.78;101739.19;4868159;29;45551;-79
2021/06/09 01:20:30;;;;;;;;;5.50;5.00;;;;;18.53;55.28;101769.94;4871243;29;45631;-79
2021/06/09 01:22:55;;;;;;;;;7.50;6.25;;;;;18.12;55.04;101705.59;4883619;29;45513;-79
2021/06/09 01:25:21;;;;;;;;;5.50;5.50;;;;;18.20;55.55;101723.75;4901765;29;45524;-80
2021/06/09 01:27:50;;;;;;;;;6.25;6.25;;;;;18.07;55.94;101692.63;4871170;29;45483;-79
2021/06/09 01:30:16;;;;;;;;;9.50;7.00;;;;;18.44;56.13;101771.09;4880733;29;45601;-79
2021/06/09 01:32:42;;;;;;;;;5.25;5.25;;;;;18.00;56.22;101685.84;4868906;29;47024;-79
2021/06/09 01:35:08;;;;;;;;;5.25;2.75;;;;;18.32;56.21;101760.09;4865678;29;45362;-79
2021/06/09 01:37:33;;;;;;;;;8.25;7.00;;;;;18.15;56.77;101738.78;4860103;29;45460;-79
2021/06/09 01:39:59;;;;;;;;;6.25;6.25;;;;;17.70;56.65;101671.03;4871014;29;45460;-79
2021/06/09 01:42:25;;;;;;;;;5.50;5.50;;;;;17.93;56.61;101727.16;4871098;29;46047;-79
2021/06/09 01:44:51;;;;;;;;;4.25;4.25;;;;;17.64;56.69;101689.56;4886177;29;45700;-79
2021/06/09 01:47:17;;;;;;;;;4.75;4.75;;;;;17.83;56.85;101725.72;4886319;29;45465;-79
2021/06/09 01:49:43;;;;;;;;;5.50;5.50;;;;;17.57;56.98;101699.38;4870427;29;45620;-79
2021/06/09 01:52:08;;;;;;;;;6.00;6.00;;;;;17.55;57.28;101698.56;4886289;29;46826;-79
2021/06/09 01:54:34;;;;;;;;;5.75;5.75;;;;;17.46;57.66;101691.84;4886219;29;45554;-79
2021/06/09 01:57:00;;;;;;;;;8.00;6.25;;;;;17.25;57.69;101670.63;4886197;29;45561;-79
2021/06/09 01:59:28;;;;;;;;;6.25;6.25;;;;;17.50;57.26;101724.06;4886528;29;45491;-79
2021/06/09 02:01:53;;;;;;;;;6.00;6.00;;;;;17.56;57.58;101738.75;4899147;29;47900;-79
2021/06/09 02:04:19;;;;;;;;;9.00;7.25;;;;;17.17;58.17;101687.41;4886120;29;45419;-79
2021/06/09 02:06:47;;;;;;;;;7.25;7.25;;;;;17.16;57.90;101683.97;4903383;29;45556;-79
2021/06/09 02:09:13;;;;;;;;;5.75;5.75;;;;;17.17;58.19;101693.53;4886631;29;45513;-79
2021/06/09 02:11:42;;;;;;;;;7.50;7.50;;;;;17.17;57.88;101700.53;4872026;29;45663;-79
2021/06/09 02:14:10;;;;;;;;;7.75;6.25;;;;;17.01;58.18;101667.75;4905870;29;45905;-79
2021/06/09 02:16:39;;;;;;;;;7.00;5.25;;;;;17.01;58.88;101683.47;4870939;29;45688;-79
2021/06/09 02:19:05;;;;;;;;;8.50;7.00;;;;;17.33;58.44;101741.13;4905686;29;45616;-79
2021/06/09 02:21:32;;;;;;;;;6.75;6.75;;;;;17.21;58.44;101712.66;4873945;29;46543;-79
2021/06/09 02:23:58;;;;;;;;;6.25;5.00;;;;;17.03;58.61;101701.75;4906319;29;45430;-79
2021/06/09 02:26:23;;;;;;;;;6.75;6.75;;;;;16.79;58.90;101670.06;4889621;29;45686;-79
2021/06/09 02:28:49;;;;;;;;;6.00;6.00;;;;;16.95;58.30;101701.94;4902456;28;45409;-79
2021/06/09 02:31:18;;;;;;;;;7.75;6.25;;;;;17.35;58.84;101769.91;4888065;29;45520;-79
2021/06/09 02:33:43;;;;;;;;;8.00;7.00;;;;;16.99;58.20;101710.59;4873735;29;45564;-79
2021/06/09 02:36:09;;;;;;;;;6.00;6.00;;;;;16.95;58.83;101722.06;4889051;29;45577;-79
2021/06/09 02:38:36;;;;;;;;;6.00;6.00;;;;;16.89;58.69;101713.47;4889711;29;45556;-79
2021/06/09 02:41:01;;;;;;;;;8.50;7.50;;;;;16.88;59.32;101724.84;4889346;29;46523;-78
2021/06/09 02:43:33;;;;;;;;;5.00;5.00;;;;;16.84;59.19;101724.97;4889108;29;45446;-79
2021/06/09 02:46:26;;;;;;;;;7.00;7.00;;;;;17.04;59.48;101737.50;4906122;29;45628;-79
2021/06/09 02:48:57;;;;;;;;;6.00;6.00;;;;;16.81;59.17;101701.47;4859338;29;45546;-79
2021/06/09 02:51:24;;;;;;;;;6.00;5.75;;;;;16.58;59.27;101690.69;4857566;29;47442;-79
2021/06/09 02:54:22;;;;;;;;;8.00;7.25;;;;;16.55;59.47;101675.91;4889375;29;45443;-79
2021/06/09 02:57:02;;;;;;;;;6.25;5.75;;;;;17.26;59.53;101789.38;4891498;29;46028;-79
2021/06/09 02:59:40;;;;;;;;;8.75;7.50;;;;;17.22;59.50;101788.59;4906105;29;45659;-80
2021/06/09 03:02:16;;;;;;;;;8.00;7.75;;;;;16.61;59.58;101706.31;4888896;29;47019;-78
2021/06/09 03:04:55;;;;;;;;;9.25;6.50;;;;;17.17;59.60;101790.47;4888868;29;45543;-79
2021/06/09 03:07:27;;;;;;;;;7.00;7.00;;;;;16.17;59.86;101635.91;4905666;29;45472;-79
2021/06/09 03:10:04;;;;;;;;;6.00;6.00;;;;;16.78;60.11;101745.19;4882456;29;45532;-79
2021/06/09 03:12:51;;;;;;;;;8.00;8.00;;;;;16.57;60.09;101722.16;4873570;29;46984;-79
2021/06/09 03:15:49;;;;;;;;;8.00;8.00;;;;;16.34;59.96;101685.19;4889059;29;45567;-79
2021/06/09 03:18:20;;;;;;;;;6.00;6.00;;;;;17.03;60.42;101814.38;4886020;29;45450;-79
2021/06/09 03:21:04;;;;;;;;;8.00;7.50;;;;;16.36;60.13;101704.31;4889318;29;45669;-79
2021/06/09 03:23:42;;;;;;;;;9.50;7.00;;;;;16.49;60.04;101731.06;4904773;29;45625;-79
2021/06/09 03:26:26;;;;;;;;;9.25;8.00;;;;;16.99;60.20;101805.75;4873727;29;45526;-79
2021/06/09 03:29:18;;;;;;;;;7.50;7.25;;;;;16.69;60.24;101755.00;4889037;29;45378;-79
2021/06/09 03:31:46;;;;;;;;;9.00;9.00;;;;;16.35;60.45;101713.09;4874293;29;45831;-79
2021/06/09 03:34:20;;;;;;;;;8.75;8.50;;;;;16.16;60.50;101674.28;4888944;29;45466;-79
2021/06/09 03:36:46;;;;;;;;;8.00;7.00;;;;;16.32;60.73;101707.91;4870480;29;45451;-79
2021/06/09 03:39:12;;;;;;;;;8.50;8.00;;;;;16.56;60.97;101737.00;4888947;29;45447;-79
2021/06/09 03:41:51;;;;;;;;;7.75;7.75;;;;;16.36;60.71;101703.47;4873868;29;45539;-79
2021/06/09 03:44:18;;;;;;;;;10.50;9.25;;;;;16.27;60.46;101686.22;4889052;29;45525;-79
2021/06/09 03:46:43;;;;;;;;;9.00;8.75;;;;;16.63;60.80;101743.81;4888733;29;45844;-79
2021/06/09 03:49:14;;;;;;;;;10.50;7.50;;;;;16.65;60.80;101746.38;4872942;29;45576;-79
2021/06/09 03:51:40;;;;;;;;;10.75;10.25;;;;;16.13;60.89;101660.41;4889507;29;45653;-79
2021/06/09 03:54:06;;;;;;;;;8.25;6.50;;;;;16.54;60.33;101729.19;4888567;29;46214;-79
2021/06/09 03:56:32;;;;;;;;;9.25;9.25;;;;;16.52;60.28;101722.25;4873038;29;45642;-79
2021/06/09 03:58:58;;;;;;;;;10.50;9.50;;;;;16.58;60.38;101726.47;4854122;29;45512;-79
2021/06/09 04:01:23;;;;;;;;;12.25;12.25;;;;;16.57;60.44;101715.16;4885504;29;45917;-79
2021/06/09 04:03:49;;;;;;;;;13.75;12.75;;;;;16.47;60.35;101711.91;4869579;29;45611;-79
2021/06/09 04:06:51;;;;;;;;;11.25;11.25;;;;;16.70;60.67;101751.50;4884978;29;45552;-80
2021/06/09 04:09:22;;;;;;;;;9.50;9.50;;;;;16.51;60.59;101694.38;4869205;29;45536;-80
2021/06/09 04:11:52;;;;;;;;;11.50;9.00;;;;;16.51;60.67;101707.47;4859762;29;45470;-81
2021/06/09 04:14:19;;;;;;;;;13.25;12.00;;;;;16.49;60.11;101694.41;4867247;29;47379;-80
2021/06/09 04:16:45;;;;;;;;;12.00;12.00;;;;;16.74;59.77;101721.72;4881874;29;45494;-80
2021/06/09 04:19:11;;;;;;;;;13.25;11.25;;;;;16.85;60.56;101742.38;4869039;29;45551;-80
2021/06/09 04:21:36;;;;;;;;;11.75;11.25;;;;;16.89;59.91;101723.09;4854372;29;45572;-80
2021/06/09 04:24:02;;;;;;;;;13.25;11.25;;;;;16.90;60.23;101733.50;4869068;29;46711;-80
2021/06/09 04:26:27;;;;;;;;;10.50;10.50;;;;;16.90;59.61;101730.91;4866202;29;45436;-80
2021/06/09 04:28:56;;;;;;;;;13.00;12.00;;;;;16.72;59.52;101679.00;4851067;29;45433;-81
2021/06/09 04:31:22;;;;;;;;;16.00;13.50;;;;;16.92;59.29;101696.81;4860060;29;45561;-79
2021/06/09 04:33:54;;;;;;;;;15.75;15.75;;;;;16.94;59.19;101705.47;4884880;29;45610;-80
2021/06/09 04:36:19;;;;;;;;;16.00;16.00;;;;;16.89;59.29;101676.81;4866957;29;45592;-80
2021/06/09 04:38:45;;;;;;;;;15.50;14.75;;;;;17.48;59.60;101776.53;4884832;29;45508;-80
2021/06/09 04:41:10;;;;;;;;;20.50;17.75;;;;;17.11;59.06;101710.28;4884961;29;45521;-80
2021/06/09 04:43:43;;;;;;;;;19.25;18.75;;;;;16.94;59.00;101660.09;4869058;29;46629;-80
2021/06/09 04:46:09;;;;;;;;;21.50;17.50;;;;;17.58;59.22;101771.88;4869155;29;45395;-80
2021/06/09 04:48:40;;;;;;;;;19.25;17.50;;;;;17.51;58.85;101736.25;4853302;29;45528;-80
2021/06/09 04:51:11;;;;;;;;;16.75;13.75;;;;;17.50;58.38;101729.31;4853409;29;45551;-80
2021/06/09 04:53:48;;;;;;;;;18.50;15.00;;;;;17.20;58.36;101667.25;4854110;29;47739;-81
2021/06/09 04:56:21;;;;;;;;;15.75;14.50;;;;;17.35;58.10;101694.78;4869878;29;45822;-81
2021/06/09 04:58:50;;;;;;;;;15.75;11.50;;;;;17.93;58.38;101781.38;4854222;29;45580;-81
2021/06/09 05:01:24;;;;;;;;;18.25;12.75;;;;;17.94;57.69;101767.38;4854120;29;45562;-80
2021/06/09 05:03:52;;;;;;;;;12.25;12.00;;;;;17.87;57.90;101761.44;4869938;29;45719;-81
2021/06/09 05:06:23;;;;;;;;;12.50;10.50;;;;;17.56;57.41;101702.94;4884229;29;45355;-80
2021/06/09 05:08:52;;;;;;;;;15.25;12.25;;;;;17.59;57.51;101702.81;4853229;29;45532;-80
2021/06/09 05:11:29;;;;;;;;;12.50;11.25;;;;;17.87;57.31;101732.56;4854244;29;45478;-80
2021/06/09 05:13:58;;;;;;;;;12.25;12.25;;;;;17.56;57.76;101665.34;4869258;29;45508;-80
2021/06/09 05:17:19;;;;;;;;;9.50;9.50;;;;;18.07;57.83;101749.47;4868778;29;45619;-81
2021/06/09 05:20:00;;;;;;;;;13.00;11.25;;;;;17.81;57.34;101688.19;4878548;29;45812;-81
2021/06/09 05:23:12;;;;;;;;;;;;;;;;;;;;;
2021/06/09 05:25:41;;;;;;;;;11.75;9.00;;;;;18.37;57.17;101762.59;4875946;29;75749;-81
2021/06/09 05:28:14;;;;;;;;;11.00;11.00;;;;;18.21;57.07;101730.72;4864790;29;45504;-81
2021/06/09 05:30:40;;;;;;;;;14.75;11.50;;;;;18.40;57.03;101722.22;4857544;29;45536;-81
2021/06/09 05:33:06;;;;;;;;;12.25;12.25;;;;;18.67;56.50;101762.47;4853180;29;45607;-80
2021/06/09 05:35:32;;;;;;;;;10.50;10.50;;;;;18.59;56.14;101725.13;4868280;29;46713;-81
2021/06/09 05:37:57;;;;;;;;;10.50;10.00;;;;;18.35;56.16;101664.66;4868281;29;45493;-81
2021/06/09 05:40:23;;;;;;;;;15.00;12.50;;;;;19.47;55.64;101833.38;4853024;29;45558;-81
2021/06/09 05:42:49;;;;;;;;;13.75;9.75;;;;;18.92;55.36;101708.22;4868611;29;45562;-80
2021/06/09 05:45:18;;;;;;;;;14.25;13.00;;;;;19.37;55.08;101753.97;4867933;29;45861;-80
2021/06/09 05:47:45;;;;;;;;;12.00;12.00;;;;;19.25;54.56;101714.97;4855667;29;45590;-80
2021/06/09 05:50:19;;;;;;;;;13.75;12.75;;;;;20.06;54.85;101808.44;4862857;29;45563;-80
2021/06/09 05:52:45;;;;;;;;;15.50;13.75;;;;;19.83;54.54;101733.88;4870280;29;46106;-79
2021/06/09 05:55:14;;;;;;;;;14.50;12.75;;;;;20.08;53.98;101744.31;4888324;29;46275;-79
2021/06/09 05:57:40;;;;;;;;;17.00;15.25;;;;;20.07;53.09;101697.00;4886787;29;45439;-80
2021/06/09 06:00:06;;;;;;;;;17.00;12.50;;;;;20.45;53.30;101720.88;4887105;29;45354;-79
2021/06/09 06:02:36;;;;;;;;;14.25;13.00;;;;;20.71;52.43;101736.50;4887396;29;45543;-81
2021/06/09 06:05:09;;;;;;;;;16.00;14.00;;;;;20.59;51.71;101690.47;4850783;29;46783;-83
2021/06/09 06:08:10;;;;;;;;;16.00;10.25;;;;;20.77;52.41;101680.91;4868326;29;45650;-83
2021/06/09 06:10:54;;;;;;;;;13.50;11.50;;;;;21.43;51.25;101765.03;4837807;29;45848;-83
2021/06/09 06:13:22;;;;;;;;;14.25;13.50;;;;;21.25;50.97;101729.81;4885149;29;45880;-82
2021/06/09 06:15:53;;;;;;;;;16.50;16.25;;;;;20.91;50.31;101676.81;4883383;29;46302;-82
2021/06/09 06:18:29;;;;;;;;;15.50;15.25;;;;;21.39;50.90;101735.31;4853815;29;45547;-81
2021/06/09 06:20:57;;;;;;;;;12.00;12.00;;;;;21.44;50.57;101741.22;4866643;29;46360;-81
2021/06/09 06:23:26;;;;;;;;;15.75;14.50;;;;;21.24;50.21;101712.28;4898241;29;45809;-81
2021/06/09 06:25:53;;;;;;;;;19.50;16.75;;;;;21.48;50.43;101746.38;4868433;29;45435;-81
2021/06/09 06:31:40;;;;;;;;;15.75;15.25;;;;;21.54;50.03;101739.03;4883715;29;45576;-82
2021/06/09 06:34:06;;;;;;;;;20.25;18.25;;;;;21.49;49.83;101719.94;4868972;29;45490;-82
2021/06/09 06:37:22;;;;;;;;;16.00;15.00;;;;;22.10;50.39;101813.94;4868715;29;45533;-82
2021/06/09 06:39:47;;;;;;;;;15.75;15.00;;;;;21.57;50.46;101719.59;4884580;29;45817;-81
2021/06/09 06:42:13;;;;;;;;;16.25;15.50;;;;;21.60;50.04;101739.69;4870890;29;45453;-81
2021/06/09 06:44:40;;;;;;;;;20.00;19.50;;;;;21.63;49.65;101728.97;4886837;29;45387;-82
2021/06/09 06:47:06;;;;;;;;;22.00;18.50;;;;;21.67;49.96;101743.75;4855296;29;45441;-82
2021/06/09 06:49:32;;;;;;;;;27.00;24.25;;;;;21.81;50.14;101753.69;4887206;29;45588;-81
2021/06/09 06:51:57;;;;;;;;;21.25;18.75;;;;;21.99;49.63;101770.41;4887708;29;45460;-82
2021/06/09 06:54:24;;;;;;;;;20.50;19.00;;;;;22.13;49.93;101776.84;4886705;29;46258;-82
2021/06/09 06:56:50;;;;;;;;;20.50;20.00;;;;;22.34;49.58;101804.00;4870928;29;48132;-82
2021/06/09 06:59:16;;;;;;;;;25.50;21.50;;;;;22.25;48.99;101799.16;4853776;29;45597;-82
2021/06/09 07:01:42;;;;;;;;;24.50;21.00;;;;;22.04;49.51;101768.41;4847129;29;45379;-82
2021/06/09 07:04:07;;;;;;;;;21.75;18.00;;;;;22.09;49.74;101752.38;4865281;29;45657;-82
2021/06/09 07:06:33;;;;;;;;;21.50;19.50;;;;;22.31;49.65;101766.31;4867194;29;47209;-82
2021/06/09 07:08:59;;;;;;;;;20.75;19.75;;;;;22.52;49.05;101783.72;4866299;29;45503;-82
2021/06/09 18:34:24;;;;;;;;;13.75;13.75;;;;;30.58;30.24;101656.38;4831508;29;45470;-87
2021/06/09 19:37:06;;;;;;;;;8.00;8.00;;;;;26.89;35.23;101625.34;5656956;23;45794;-83
2021/06/09 19:39:32;;;;;;;;;7.00;7.00;;;;;26.97;35.66;101647.91;4865205;29;45970;-82
2021/06/09 19:41:57;;;;;;;;;11.25;11.00;;;;;26.87;35.46;101655.66;4887957;29;45833;-81
